sensor_id;sensor_type;location;lat;lon;timestamp;P1;durP1;ratioP1;P2;durP2;ratioP2
13343;SDS011;6741;48.964;9.406;2023-02-28T00:01:24;4.17;;;3.37;;
13343;SDS011;6741;48.964;9.406;2023-02-28T00:03:52;5.40;;;3.60;;
13343;SDS011;6741;48.964;9.406;2023-02-28T00:06:19;4.57;;;3.77;;
13343;SDS011;6741;48.964;9.406;2023-02-28T00:08:48;4.33;;;3.40;;
13343;SDS011;6741;48.964;9.406;2023-02-28T00:11:18;6.27;;;3.83;;
13343;SDS011;6741;48.964;9.406;2023-02-28T00:13:47;4.13;;;3.50;;
13343;SDS011;6741;48.964;9.406;2023-02-28T00:16:15;4.07;;;3.67;;
13343;SDS011;6741;48.964;9.406;2023-02-28T00:18:43;5.00;;;3.40;;
13343;SDS011;6741;48.964;9.406;2023-02-28T00:21:10;4.57;;;3.67;;
13343;SDS011;6741;48.964;9.406;2023-02-28T00:23:40;4.43;;;3.90;;
13343;SDS011;6741;48.964;9.406;2023-02-28T00:26:08;6.37;;;3.63;;
13343;SDS011;6741;48.964;9.406;2023-02-28T00:28:35;5.53;;;3.80;;
13343;SDS011;6741;48.964;9.406;2023-02-28T00:31:02;4.83;;;3.87;;
13343;SDS011;6741;48.964;9.406;2023-02-28T00:33:30;7.83;;;3.83;;
13343;SDS011;6741;48.964;9.406;2023-02-28T00:36:03;4.60;;;4.00;;
13343;SDS011;6741;48.964;9.406;2023-02-28T00:38:35;6.67;;;3.80;;
13343;SDS011;6741;48.964;9.406;2023-02-28T00:41:02;4.30;;;3.90;;
13343;SDS011;6741;48.964;9.406;2023-02-28T00:43:32;4.00;;;3.60;;
13343;SDS011;6741;48.964;9.406;2023-02-28T00:45:59;5.53;;;4.07;;
13343;SDS011;6741;48.964;9.406;2023-02-28T00:48:26;4.47;;;4.03;;
13343;SDS011;6741;48.964;9.406;2023-02-28T00:50:54;6.07;;;4.37;;
13343;SDS011;6741;48.964;9.406;2023-02-28T00:53:21;5.13;;;3.90;;
13343;SDS011;6741;48.964;9.406;2023-02-28T00:55:49;6.57;;;4.70;;
13343;SDS011;6741;48.964;9.406;2023-02-28T00:58:16;5.33;;;4.30;;
13343;SDS011;6741;48.964;9.406;2023-02-28T01:00:46;6.03;;;4.30;;
13343;SDS011;6741;48.964;9.406;2023-02-28T01:03:14;4.73;;;4.23;;
13343;SDS011;6741;48.964;9.406;2023-02-28T01:05:42;4.63;;;4.13;;
13343;SDS011;6741;48.964;9.406;2023-02-28T01:08:09;5.53;;;3.97;;
13343;SDS011;6741;48.964;9.406;2023-02-28T01:10:36;4.23;;;3.60;;
13343;SDS011;6741;48.964;9.406;2023-02-28T01:13:03;7.27;;;4.23;;
13343;SDS011;6741;48.964;9.406;2023-02-28T01:15:30;4.97;;;4.40;;
13343;SDS011;6741;48.964;9.406;2023-02-28T01:17:59;5.17;;;3.80;;
13343;SDS011;6741;48.964;9.406;2023-02-28T01:20:26;5.23;;;3.80;;
13343;SDS011;6741;48.964;9.406;2023-02-28T01:22:53;5.43;;;4.30;;
13343;SDS011;6741;48.964;9.406;2023-02-28T01:25:22;4.13;;;3.63;;
13343;SDS011;6741;48.964;9.406;2023-02-28T01:27:49;4.40;;;4.00;;
13343;SDS011;6741;48.964;9.406;2023-02-28T01:30:16;4.80;;;4.00;;
13343;SDS011;6741;48.964;9.406;2023-02-28T01:32:43;7.17;;;4.30;;
13343;SDS011;6741;48.964;9.406;2023-02-28T01:35:11;7.13;;;4.33;;
13343;SDS011;6741;48.964;9.406;2023-02-28T01:37:38;3.90;;;3.50;;
13343;SDS011;6741;48.964;9.406;2023-02-28T01:40:06;5.90;;;4.13;;
13343;SDS011;6741;48.964;9.406;2023-02-28T01:42:34;4.57;;;4.17;;
13343;SDS011;6741;48.964;9.406;2023-02-28T01:45:03;7.40;;;3.83;;
13343;SDS011;6741;48.964;9.406;2023-02-28T01:47:40;5.17;;;4.40;;
13343;SDS011;6741;48.964;9.406;2023-02-28T01:50:10;4.53;;;4.03;;
13343;SDS011;6741;48.964;9.406;2023-02-28T01:52:44;4.63;;;4.07;;
13343;SDS011;6741;48.964;9.406;2023-02-28T01:55:13;5.27;;;4.30;;
13343;SDS011;6741;48.964;9.406;2023-02-28T01:57:43;7.97;;;4.70;;
13343;SDS011;6741;48.964;9.406;2023-02-28T02:00:15;5.07;;;4.57;;
13343;SDS011;6741;48.964;9.406;2023-02-28T02:02:45;6.43;;;4.60;;
13343;SDS011;6741;48.964;9.406;2023-02-28T02:05:17;4.67;;;4.23;;
13343;SDS011;6741;48.964;9.406;2023-02-28T02:07:46;5.20;;;4.63;;
13343;SDS011;6741;48.964;9.406;2023-02-28T02:10:16;5.20;;;4.50;;
13343;SDS011;6741;48.964;9.406;2023-02-28T02:12:52;5.70;;;4.87;;
13343;SDS011;6741;48.964;9.406;2023-02-28T02:15:42;5.37;;;4.63;;
13343;SDS011;6741;48.964;9.406;2023-02-28T02:18:18;5.40;;;4.23;;
13343;SDS011;6741;48.964;9.406;2023-02-28T02:21:01;5.37;;;4.40;;
13343;SDS011;6741;48.964;9.406;2023-02-28T02:24:03;5.33;;;4.83;;
13343;SDS011;6741;48.964;9.406;2023-02-28T02:36:04;6.07;;;4.70;;
13343;SDS011;6741;48.964;9.406;2023-02-28T02:38:36;6.87;;;5.60;;
13343;SDS011;6741;48.964;9.406;2023-02-28T02:41:11;5.73;;;4.70;;
13343;SDS011;6741;48.964;9.406;2023-02-28T02:43:46;6.03;;;5.30;;
13343;SDS011;6741;48.964;9.406;2023-02-28T02:46:18;5.30;;;4.80;;
13343;SDS011;6741;48.964;9.406;2023-02-28T02:48:47;5.70;;;4.90;;
13343;SDS011;6741;48.964;9.406;2023-02-28T02:51:18;7.57;;;5.67;;
13343;SDS011;6741;48.964;9.406;2023-02-28T02:53:49;6.57;;;5.23;;
13343;SDS011;6741;48.964;9.406;2023-02-28T02:56:21;6.00;;;4.77;;
13343;SDS011;6741;48.964;9.406;2023-02-28T02:58:51;6.50;;;5.33;;
13343;SDS011;6741;48.964;9.406;2023-02-28T03:01:22;7.53;;;5.03;;
13343;SDS011;6741;48.964;9.406;2023-02-28T03:03:54;5.90;;;4.87;;
13343;SDS011;6741;48.964;9.406;2023-02-28T03:06:24;6.80;;;5.00;;
13343;SDS011;6741;48.964;9.406;2023-02-28T03:08:52;5.63;;;4.80;;
13343;SDS011;6741;48.964;9.406;2023-02-28T03:11:19;6.03;;;4.40;;
13343;SDS011;6741;48.964;9.406;2023-02-28T03:16:36;6.77;;;5.33;;
13343;SDS011;6741;48.964;9.406;2023-02-28T03:19:33;6.20;;;4.63;;
13343;SDS011;6741;48.964;9.406;2023-02-28T03:22:12;6.20;;;5.53;;
13343;SDS011;6741;48.964;9.406;2023-02-28T03:24:46;5.67;;;4.60;;
13343;SDS011;6741;48.964;9.406;2023-02-28T03:27:21;6.30;;;5.23;;
13343;SDS011;6741;48.964;9.406;2023-02-28T03:29:54;5.73;;;4.63;;
13343;SDS011;6741;48.964;9.406;2023-02-28T03:32:28;7.40;;;5.13;;
13343;SDS011;6741;48.964;9.406;2023-02-28T03:35:02;7.37;;;5.53;;
13343;SDS011;6741;48.964;9.406;2023-02-28T03:37:36;7.37;;;5.20;;
13343;SDS011;6741;48.964;9.406;2023-02-28T03:40:07;8.10;;;5.40;;
13343;SDS011;6741;48.964;9.406;2023-02-28T03:42:37;5.27;;;4.73;;
13343;SDS011;6741;48.964;9.406;2023-02-28T03:45:09;8.00;;;4.80;;
13343;SDS011;6741;48.964;9.406;2023-02-28T03:47:40;6.43;;;5.43;;
13343;SDS011;6741;48.964;9.406;2023-02-28T03:50:11;7.67;;;4.90;;
13343;SDS011;6741;48.964;9.406;2023-02-28T03:52:44;7.17;;;5.60;;
13343;SDS011;6741;48.964;9.406;2023-02-28T03:55:14;6.03;;;5.00;;
13343;SDS011;6741;48.964;9.406;2023-02-28T03:57:47;6.57;;;5.13;;
13343;SDS011;6741;48.964;9.406;2023-02-28T04:00:24;7.27;;;5.80;;
13343;SDS011;6741;48.964;9.406;2023-02-28T04:02:55;7.87;;;5.67;;
13343;SDS011;6741;48.964;9.406;2023-02-28T04:05:22;7.47;;;5.60;;
13343;SDS011;6741;48.964;9.406;2023-02-28T04:07:51;9.13;;;5.93;;
13343;SDS011;6741;48.964;9.406;2023-02-28T04:10:19;7.03;;;5.43;;
13343;SDS011;6741;48.964;9.406;2023-02-28T04:12:46;8.47;;;5.73;;
13343;SDS011;6741;48.964;9.406;2023-02-28T04:15:13;6.43;;;5.47;;
13343;SDS011;6741;48.964;9.406;2023-02-28T04:17:40;8.93;;;5.73;;
13343;SDS011;6741;48.964;9.406;2023-02-28T04:20:08;6.50;;;5.23;;
13343;SDS011;6741;48.964;9.406;2023-02-28T04:22:36;11.03;;;5.97;;
13343;SDS011;6741;48.964;9.406;2023-02-28T04:25:05;8.90;;;5.87;;
13343;SDS011;6741;48.964;9.406;2023-02-28T04:27:33;7.43;;;5.13;;
13343;SDS011;6741;48.964;9.406;2023-02-28T04:30:00;6.83;;;5.27;;
13343;SDS011;6741;48.964;9.406;2023-02-28T04:32:28;7.90;;;5.70;;
13343;SDS011;6741;48.964;9.406;2023-02-28T04:34:54;6.60;;;5.30;;
13343;SDS011;6741;48.964;9.406;2023-02-28T04:37:21;7.63;;;5.73;;
13343;SDS011;6741;48.964;9.406;2023-02-28T04:39:52;6.00;;;5.40;;
13343;SDS011;6741;48.964;9.406;2023-02-28T04:42:21;7.93;;;6.27;;
13343;SDS011;6741;48.964;9.406;2023-02-28T04:44:48;9.73;;;6.03;;
13343;SDS011;6741;48.964;9.406;2023-02-28T04:47:14;6.27;;;5.13;;
13343;SDS011;6741;48.964;9.406;2023-02-28T04:49:41;7.50;;;5.67;;
13343;SDS011;6741;48.964;9.406;2023-02-28T04:52:08;7.97;;;5.27;;
13343;SDS011;6741;48.964;9.406;2023-02-28T04:54:35;9.13;;;5.60;;
13343;SDS011;6741;48.964;9.406;2023-02-28T04:57:03;6.97;;;5.87;;
13343;SDS011;6741;48.964;9.406;2023-02-28T04:59:32;8.00;;;5.33;;
13343;SDS011;6741;48.964;9.406;2023-02-28T05:01:59;8.60;;;5.67;;
13343;SDS011;6741;48.964;9.406;2023-02-28T05:04:31;7.93;;;5.37;;
13343;SDS011;6741;48.964;9.406;2023-02-28T05:06:59;7.43;;;5.70;;
13343;SDS011;6741;48.964;9.406;2023-02-28T05:09:26;6.37;;;5.60;;
13343;SDS011;6741;48.964;9.406;2023-02-28T05:11:54;7.20;;;5.13;;
13343;SDS011;6741;48.964;9.406;2023-02-28T05:14:21;6.37;;;5.50;;
13343;SDS011;6741;48.964;9.406;2023-02-28T05:16:49;7.57;;;6.07;;
13343;SDS011;6741;48.964;9.406;2023-02-28T05:19:16;7.93;;;5.67;;
13343;SDS011;6741;48.964;9.406;2023-02-28T05:21:48;7.93;;;6.00;;
13343;SDS011;6741;48.964;9.406;2023-02-28T05:24:17;9.60;;;5.77;;
13343;SDS011;6741;48.964;9.406;2023-02-28T05:26:48;8.57;;;5.47;;
13343;SDS011;6741;48.964;9.406;2023-02-28T05:29:16;8.53;;;5.90;;
13343;SDS011;6741;48.964;9.406;2023-02-28T05:31:42;10.80;;;6.87;;
13343;SDS011;6741;48.964;9.406;2023-02-28T05:34:11;8.03;;;6.33;;
13343;SDS011;6741;48.964;9.406;2023-02-28T05:36:40;7.30;;;5.83;;
13343;SDS011;6741;48.964;9.406;2023-02-28T05:39:07;13.03;;;10.10;;
13343;SDS011;6741;48.964;9.406;2023-02-28T05:41:37;13.90;;;8.40;;
13343;SDS011;6741;48.964;9.406;2023-02-28T05:44:05;7.07;;;6.27;;
13343;SDS011;6741;48.964;9.406;2023-02-28T05:46:32;8.57;;;6.60;;
13343;SDS011;6741;48.964;9.406;2023-02-28T05:48:59;8.67;;;6.40;;
13343;SDS011;6741;48.964;9.406;2023-02-28T05:51:28;9.20;;;7.10;;
13343;SDS011;6741;48.964;9.406;2023-02-28T05:53:58;8.80;;;7.33;;
13343;SDS011;6741;48.964;9.406;2023-02-28T05:56:28;8.43;;;6.70;;
13343;SDS011;6741;48.964;9.406;2023-02-28T05:58:55;8.50;;;6.20;;
13343;SDS011;6741;48.964;9.406;2023-02-28T06:01:23;8.77;;;6.37;;
13343;SDS011;6741;48.964;9.406;2023-02-28T06:03:57;9.63;;;7.07;;
13343;SDS011;6741;48.964;9.406;2023-02-28T06:06:25;7.90;;;6.43;;
13343;SDS011;6741;48.964;9.406;2023-02-28T06:08:53;10.00;;;7.00;;
13343;SDS011;6741;48.964;9.406;2023-02-28T06:11:20;10.77;;;7.13;;
13343;SDS011;6741;48.964;9.406;2023-02-28T06:13:52;8.63;;;6.20;;
13343;SDS011;6741;48.964;9.406;2023-02-28T06:16:20;9.50;;;6.67;;
13343;SDS011;6741;48.964;9.406;2023-02-28T06:18:47;7.50;;;6.50;;
13343;SDS011;6741;48.964;9.406;2023-02-28T06:21:14;8.27;;;6.20;;
13343;SDS011;6741;48.964;9.406;2023-02-28T06:23:41;7.60;;;5.97;;
13343;SDS011;6741;48.964;9.406;2023-02-28T06:26:10;9.90;;;6.23;;
13343;SDS011;6741;48.964;9.406;2023-02-28T06:28:37;10.40;;;6.67;;
13343;SDS011;6741;48.964;9.406;2023-02-28T06:31:07;9.50;;;6.57;;
13343;SDS011;6741;48.964;9.406;2023-02-28T06:33:36;8.77;;;6.53;;
13343;SDS011;6741;48.964;9.406;2023-02-28T06:36:04;8.63;;;6.93;;
13343;SDS011;6741;48.964;9.406;2023-02-28T06:38:32;7.83;;;6.70;;
13343;SDS011;6741;48.964;9.406;2023-02-28T06:40:59;8.63;;;6.97;;
13343;SDS011;6741;48.964;9.406;2023-02-28T06:43:28;9.27;;;6.67;;
13343;SDS011;6741;48.964;9.406;2023-02-28T06:45:57;8.53;;;6.17;;
13343;SDS011;6741;48.964;9.406;2023-02-28T06:48:26;10.97;;;6.43;;
13343;SDS011;6741;48.964;9.406;2023-02-28T06:51:00;7.83;;;5.90;;
13343;SDS011;6741;48.964;9.406;2023-02-28T06:53:28;8.93;;;6.70;;
13343;SDS011;6741;48.964;9.406;2023-02-28T06:55:55;9.43;;;6.60;;
13343;SDS011;6741;48.964;9.406;2023-02-28T06:58:22;8.70;;;6.73;;
13343;SDS011;6741;48.964;9.406;2023-02-28T07:00:51;6.73;;;6.03;;
13343;SDS011;6741;48.964;9.406;2023-02-28T07:03:19;9.73;;;6.80;;
13343;SDS011;6741;48.964;9.406;2023-02-28T07:05:46;11.30;;;6.67;;
13343;SDS011;6741;48.964;9.406;2023-02-28T07:08:13;9.30;;;5.93;;
13343;SDS011;6741;48.964;9.406;2023-02-28T07:10:40;8.63;;;6.67;;
13343;SDS011;6741;48.964;9.406;2023-02-28T07:13:07;8.63;;;6.50;;
13343;SDS011;6741;48.964;9.406;2023-02-28T07:15:35;10.13;;;6.70;;
13343;SDS011;6741;48.964;9.406;2023-02-28T07:18:03;9.77;;;7.20;;
13343;SDS011;6741;48.964;9.406;2023-02-28T07:20:30;11.00;;;7.40;;
13343;SDS011;6741;48.964;9.406;2023-02-28T07:22:57;8.90;;;7.47;;
13343;SDS011;6741;48.964;9.406;2023-02-28T07:25:24;10.10;;;7.30;;
13343;SDS011;6741;48.964;9.406;2023-02-28T07:27:53;9.10;;;7.17;;
13343;SDS011;6741;48.964;9.406;2023-02-28T07:30:20;9.07;;;7.10;;
13343;SDS011;6741;48.964;9.406;2023-02-28T07:32:47;10.60;;;7.73;;
13343;SDS011;6741;48.964;9.406;2023-02-28T07:35:16;11.60;;;7.37;;
13343;SDS011;6741;48.964;9.406;2023-02-28T07:37:44;8.30;;;6.30;;
13343;SDS011;6741;48.964;9.406;2023-02-28T07:40:12;11.43;;;8.00;;
13343;SDS011;6741;48.964;9.406;2023-02-28T07:42:40;11.43;;;8.07;;
13343;SDS011;6741;48.964;9.406;2023-02-28T07:45:10;10.70;;;7.47;;
13343;SDS011;6741;48.964;9.406;2023-02-28T07:47:37;8.83;;;7.93;;
13343;SDS011;6741;48.964;9.406;2023-02-28T07:50:10;13.53;;;8.23;;
13343;SDS011;6741;48.964;9.406;2023-02-28T07:52:40;11.90;;;7.20;;
13343;SDS011;6741;48.964;9.406;2023-02-28T07:55:07;12.30;;;8.57;;
13343;SDS011;6741;48.964;9.406;2023-02-28T07:57:35;10.73;;;8.23;;
13343;SDS011;6741;48.964;9.406;2023-02-28T08:00:02;9.97;;;7.67;;
13343;SDS011;6741;48.964;9.406;2023-02-28T08:02:31;10.17;;;7.70;;
13343;SDS011;6741;48.964;9.406;2023-02-28T08:04:58;11.17;;;8.13;;
13343;SDS011;6741;48.964;9.406;2023-02-28T08:07:26;11.13;;;8.17;;
13343;SDS011;6741;48.964;9.406;2023-02-28T08:09:54;12.87;;;9.10;;
13343;SDS011;6741;48.964;9.406;2023-02-28T08:12:21;11.57;;;8.63;;
13343;SDS011;6741;48.964;9.406;2023-02-28T08:14:48;12.13;;;8.83;;
13343;SDS011;6741;48.964;9.406;2023-02-28T08:17:15;11.10;;;8.63;;
13343;SDS011;6741;48.964;9.406;2023-02-28T08:19:44;11.67;;;8.43;;
13343;SDS011;6741;48.964;9.406;2023-02-28T08:22:11;14.90;;;9.57;;
13343;SDS011;6741;48.964;9.406;2023-02-28T08:24:38;14.80;;;9.00;;
13343;SDS011;6741;48.964;9.406;2023-02-28T08:27:09;17.07;;;11.03;;
13343;SDS011;6741;48.964;9.406;2023-02-28T08:29:36;14.40;;;9.73;;
13343;SDS011;6741;48.964;9.406;2023-02-28T08:32:04;14.40;;;9.93;;
13343;SDS011;6741;48.964;9.406;2023-02-28T08:34:31;17.70;;;11.97;;
13343;SDS011;6741;48.964;9.406;2023-02-28T08:36:58;11.60;;;8.30;;
13343;SDS011;6741;48.964;9.406;2023-02-28T08:39:25;12.03;;;8.67;;
13343;SDS011;6741;48.964;9.406;2023-02-28T08:41:52;13.07;;;9.33;;
13343;SDS011;6741;48.964;9.406;2023-02-28T08:44:21;11.70;;;8.67;;
13343;SDS011;6741;48.964;9.406;2023-02-28T08:46:47;12.90;;;8.93;;
13343;SDS011;6741;48.964;9.406;2023-02-28T08:49:14;12.30;;;9.17;;
13343;SDS011;6741;48.964;9.406;2023-02-28T08:51:41;13.70;;;8.53;;
13343;SDS011;6741;48.964;9.406;2023-02-28T08:54:08;13.53;;;9.77;;
13343;SDS011;6741;48.964;9.406;2023-02-28T08:56:37;10.60;;;9.03;;
13343;SDS011;6741;48.964;9.406;2023-02-28T08:59:04;11.27;;;9.37;;
13343;SDS011;6741;48.964;9.406;2023-02-28T09:01:33;13.50;;;9.13;;
13343;SDS011;6741;48.964;9.406;2023-02-28T09:04:01;10.77;;;9.20;;
13343;SDS011;6741;48.964;9.406;2023-02-28T09:06:28;17.77;;;10.57;;
13343;SDS011;6741;48.964;9.406;2023-02-28T09:08:56;12.07;;;9.23;;
13343;SDS011;6741;48.964;9.406;2023-02-28T09:11:24;12.53;;;9.67;;
13343;SDS011;6741;48.964;9.406;2023-02-28T09:13:51;14.30;;;10.33;;
13343;SDS011;6741;48.964;9.406;2023-02-28T09:16:18;14.00;;;9.47;;
13343;SDS011;6741;48.964;9.406;2023-02-28T09:18:47;12.70;;;8.90;;
13343;SDS011;6741;48.964;9.406;2023-02-28T09:21:14;11.40;;;8.70;;
13343;SDS011;6741;48.964;9.406;2023-02-28T09:23:43;11.47;;;8.63;;
13343;SDS011;6741;48.964;9.406;2023-02-28T09:26:13;11.90;;;8.83;;
13343;SDS011;6741;48.964;9.406;2023-02-28T09:28:40;11.70;;;8.23;;
13343;SDS011;6741;48.964;9.406;2023-02-28T09:31:10;11.93;;;8.70;;
13343;SDS011;6741;48.964;9.406;2023-02-28T09:33:38;12.40;;;9.27;;
13343;SDS011;6741;48.964;9.406;2023-02-28T09:36:07;12.30;;;9.10;;
13343;SDS011;6741;48.964;9.406;2023-02-28T09:38:34;12.00;;;9.10;;
13343;SDS011;6741;48.964;9.406;2023-02-28T09:41:02;12.20;;;8.40;;
13343;SDS011;6741;48.964;9.406;2023-02-28T09:43:37;14.00;;;10.27;;
13343;SDS011;6741;48.964;9.406;2023-02-28T09:46:08;10.47;;;8.40;;
13343;SDS011;6741;48.964;9.406;2023-02-28T09:48:44;10.50;;;8.53;;
13343;SDS011;6741;48.964;9.406;2023-02-28T09:51:16;11.17;;;8.50;;
13343;SDS011;6741;48.964;9.406;2023-02-28T09:54:00;11.33;;;8.53;;
13343;SDS011;6741;48.964;9.406;2023-02-28T09:56:30;10.53;;;8.93;;
13343;SDS011;6741;48.964;9.406;2023-02-28T09:59:00;9.83;;;7.93;;
13343;SDS011;6741;48.964;9.406;2023-02-28T10:01:31;10.40;;;8.73;;
13343;SDS011;6741;48.964;9.406;2023-02-28T10:04:03;11.03;;;8.53;;
13343;SDS011;6741;48.964;9.406;2023-02-28T10:06:38;12.03;;;9.03;;
13343;SDS011;6741;48.964;9.406;2023-02-28T10:09:11;11.27;;;8.00;;
13343;SDS011;6741;48.964;9.406;2023-02-28T10:11:44;11.67;;;8.63;;
13343;SDS011;6741;48.964;9.406;2023-02-28T10:14:13;9.83;;;8.13;;
13343;SDS011;6741;48.964;9.406;2023-02-28T10:16:44;10.20;;;8.57;;
13343;SDS011;6741;48.964;9.406;2023-02-28T10:19:17;10.07;;;8.33;;
13343;SDS011;6741;48.964;9.406;2023-02-28T10:21:51;12.17;;;8.23;;
13343;SDS011;6741;48.964;9.406;2023-02-28T10:24:28;11.00;;;8.07;;
13343;SDS011;6741;48.964;9.406;2023-02-28T10:26:59;10.80;;;8.47;;
13343;SDS011;6741;48.964;9.406;2023-02-28T10:29:27;12.17;;;8.40;;
13343;SDS011;6741;48.964;9.406;2023-02-28T10:31:58;10.77;;;8.57;;
13343;SDS011;6741;48.964;9.406;2023-02-28T10:34:28;10.57;;;9.00;;
13343;SDS011;6741;48.964;9.406;2023-02-28T10:36:57;10.00;;;8.53;;
13343;SDS011;6741;48.964;9.406;2023-02-28T10:39:39;10.60;;;8.60;;
13343;SDS011;6741;48.964;9.406;2023-02-28T10:42:18;10.40;;;8.37;;
13343;SDS011;6741;48.964;9.406;2023-02-28T10:45:04;10.90;;;7.83;;
13343;SDS011;6741;48.964;9.406;2023-02-28T10:47:33;11.43;;;8.33;;
13343;SDS011;6741;48.964;9.406;2023-02-28T10:50:01;11.07;;;8.13;;
13343;SDS011;6741;48.964;9.406;2023-02-28T10:52:37;11.07;;;8.93;;
13343;SDS011;6741;48.964;9.406;2023-02-28T10:55:15;11.97;;;8.70;;
13343;SDS011;6741;48.964;9.406;2023-02-28T10:57:48;10.83;;;8.77;;
13343;SDS011;6741;48.964;9.406;2023-02-28T11:00:17;11.83;;;8.80;;
13343;SDS011;6741;48.964;9.406;2023-02-28T11:02:47;10.77;;;8.57;;
13343;SDS011;6741;48.964;9.406;2023-02-28T11:05:24;11.10;;;8.23;;
13343;SDS011;6741;48.964;9.406;2023-02-28T11:07:54;10.90;;;8.23;;
13343;SDS011;6741;48.964;9.406;2023-02-28T11:10:24;9.90;;;7.97;;
13343;SDS011;6741;48.964;9.406;2023-02-28T11:12:55;9.87;;;8.40;;
13343;SDS011;6741;48.964;9.406;2023-02-28T11:15:23;11.77;;;8.83;;
13343;SDS011;6741;48.964;9.406;2023-02-28T11:17:53;10.87;;;8.30;;
13343;SDS011;6741;48.964;9.406;2023-02-28T11:20:21;10.70;;;9.00;;
13343;SDS011;6741;48.964;9.406;2023-02-28T11:22:51;10.37;;;8.63;;
13343;SDS011;6741;48.964;9.406;2023-02-28T11:25:21;8.90;;;7.40;;
13343;SDS011;6741;48.964;9.406;2023-02-28T11:27:51;10.03;;;8.17;;
13343;SDS011;6741;48.964;9.406;2023-02-28T11:30:26;8.10;;;7.30;;
13343;SDS011;6741;48.964;9.406;2023-02-28T11:32:55;9.77;;;8.57;;
13343;SDS011;6741;48.964;9.406;2023-02-28T11:35:23;11.03;;;8.37;;
13343;SDS011;6741;48.964;9.406;2023-02-28T11:37:54;9.57;;;8.03;;
13343;SDS011;6741;48.964;9.406;2023-02-28T11:40:23;9.07;;;7.80;;
13343;SDS011;6741;48.964;9.406;2023-02-28T11:42:57;8.87;;;7.93;;
13343;SDS011;6741;48.964;9.406;2023-02-28T11:45:46;9.47;;;7.97;;
13343;SDS011;6741;48.964;9.406;2023-02-28T11:48:23;8.80;;;7.90;;
13343;SDS011;6741;48.964;9.406;2023-02-28T11:50:58;10.63;;;8.47;;
13343;SDS011;6741;48.964;9.406;2023-02-28T11:53:42;10.63;;;8.50;;
13343;SDS011;6741;48.964;9.406;2023-02-28T11:56:25;9.07;;;8.20;;
13343;SDS011;6741;48.964;9.406;2023-02-28T11:59:01;11.23;;;7.77;;
13343;SDS011;6741;48.964;9.406;2023-02-28T12:01:49;8.93;;;8.00;;
13343;SDS011;6741;48.964;9.406;2023-02-28T12:04:29;9.60;;;8.07;;
13343;SDS011;6741;48.964;9.406;2023-02-28T12:07:07;8.60;;;7.70;;
13343;SDS011;6741;48.964;9.406;2023-02-28T12:09:47;10.07;;;7.77;;
13343;SDS011;6741;48.964;9.406;2023-02-28T12:12:25;9.87;;;8.40;;
13343;SDS011;6741;48.964;9.406;2023-02-28T12:15:14;11.00;;;7.67;;
13343;SDS011;6741;48.964;9.406;2023-02-28T12:18:03;9.87;;;7.40;;
13343;SDS011;6741;48.964;9.406;2023-02-28T12:20:45;8.87;;;7.97;;
13343;SDS011;6741;48.964;9.406;2023-02-28T12:23:49;10.00;;;7.83;;
13343;SDS011;6741;48.964;9.406;2023-02-28T12:26:32;9.43;;;8.10;;
13343;SDS011;6741;48.964;9.406;2023-02-28T12:29:04;8.77;;;7.87;;
13343;SDS011;6741;48.964;9.406;2023-02-28T12:31:40;8.87;;;7.97;;
13343;SDS011;6741;48.964;9.406;2023-02-28T12:34:12;9.97;;;8.97;;
13343;SDS011;6741;48.964;9.406;2023-02-28T12:36:42;10.33;;;8.47;;
13343;SDS011;6741;48.964;9.406;2023-02-28T12:39:12;11.17;;;9.97;;
13343;SDS011;6741;48.964;9.406;2023-02-28T12:41:47;9.70;;;8.80;;
13343;SDS011;6741;48.964;9.406;2023-02-28T12:44:20;8.87;;;8.07;;
13343;SDS011;6741;48.964;9.406;2023-02-28T12:46:54;9.07;;;8.13;;
13343;SDS011;6741;48.964;9.406;2023-02-28T12:49:25;9.30;;;8.33;;
13343;SDS011;6741;48.964;9.406;2023-02-28T12:51:57;9.03;;;8.10;;
13343;SDS011;6741;48.964;9.406;2023-02-28T12:54:28;8.93;;;8.03;;
13343;SDS011;6741;48.964;9.406;2023-02-28T12:57:02;9.17;;;8.37;;
13343;SDS011;6741;48.964;9.406;2023-02-28T12:59:37;8.20;;;7.40;;
13343;SDS011;6741;48.964;9.406;2023-02-28T13:11:24;8.48;;;7.70;;
13343;SDS011;6741;48.964;9.406;2023-02-28T13:13:59;10.07;;;8.18;;
13343;SDS011;6741;48.964;9.406;2023-02-28T13:16:28;9.55;;;7.90;;
13343;SDS011;6741;48.964;9.406;2023-02-28T13:19:19;9.82;;;8.88;;
13343;SDS011;6741;48.964;9.406;2023-02-28T13:21:49;12.90;;;10.00;;
13343;SDS011;6741;48.964;9.406;2023-02-28T13:24:37;10.13;;;8.32;;
13343;SDS011;6741;48.964;9.406;2023-02-28T13:30:02;11.75;;;10.63;;
13343;SDS011;6741;48.964;9.406;2023-02-28T13:33:24;10.32;;;9.13;;
13343;SDS011;6741;48.964;9.406;2023-02-28T13:38:50;8.93;;;8.07;;
13343;SDS011;6741;48.964;9.406;2023-02-28T13:44:14;9.38;;;8.38;;
13343;SDS011;6741;48.964;9.406;2023-02-28T13:49:51;10.47;;;9.17;;
13343;SDS011;6741;48.964;9.406;2023-02-28T13:52:20;8.87;;;7.90;;
13343;SDS011;6741;48.964;9.406;2023-02-28T13:54:52;9.07;;;8.17;;
13343;SDS011;6741;48.964;9.406;2023-02-28T13:57:30;8.37;;;7.57;;
13343;SDS011;6741;48.964;9.406;2023-02-28T14:00:13;9.20;;;8.30;;
13343;SDS011;6741;48.964;9.406;2023-02-28T14:03:00;9.37;;;8.40;;
13343;SDS011;6741;48.964;9.406;2023-02-28T14:05:37;10.67;;;8.30;;
13343;SDS011;6741;48.964;9.406;2023-02-28T14:08:05;9.60;;;8.60;;
13343;SDS011;6741;48.964;9.406;2023-02-28T14:10:40;8.70;;;7.70;;
13343;SDS011;6741;48.964;9.406;2023-02-28T14:13:14;8.83;;;8.00;;
13343;SDS011;6741;48.964;9.406;2023-02-28T14:16:09;8.90;;;8.00;;
13343;SDS011;6741;48.964;9.406;2023-02-28T14:18:39;10.77;;;8.10;;
13343;SDS011;6741;48.964;9.406;2023-02-28T14:21:10;9.10;;;8.20;;
13343;SDS011;6741;48.964;9.406;2023-02-28T14:27:00;9.53;;;8.17;;
13343;SDS011;6741;48.964;9.406;2023-02-28T14:32:51;9.60;;;8.77;;
13343;SDS011;6741;48.964;9.406;2023-02-28T14:35:39;9.10;;;8.30;;
13343;SDS011;6741;48.964;9.406;2023-02-28T14:38:18;9.10;;;8.20;;
13343;SDS011;6741;48.964;9.406;2023-02-28T14:40:49;9.33;;;8.43;;
13343;SDS011;6741;48.964;9.406;2023-02-28T14:43:20;9.17;;;8.27;;
13343;SDS011;6741;48.964;9.406;2023-02-28T14:45:49;9.20;;;8.30;;
13343;SDS011;6741;48.964;9.406;2023-02-28T14:48:19;9.27;;;8.30;;
13343;SDS011;6741;48.964;9.406;2023-02-28T14:50:52;9.33;;;8.17;;
13343;SDS011;6741;48.964;9.406;2023-02-28T14:53:25;8.73;;;7.83;;
13343;SDS011;6741;48.964;9.406;2023-02-28T14:55:54;9.83;;;8.63;;
13343;SDS011;6741;48.964;9.406;2023-02-28T14:58:24;9.50;;;8.40;;
13343;SDS011;6741;48.964;9.406;2023-02-28T15:00:53;10.20;;;9.20;;
13343;SDS011;6741;48.964;9.406;2023-02-28T15:03:23;9.37;;;8.47;;
13343;SDS011;6741;48.964;9.406;2023-02-28T15:06:02;9.33;;;8.43;;
13343;SDS011;6741;48.964;9.406;2023-02-28T15:08:40;10.02;;;9.00;;
13343;SDS011;6741;48.964;9.406;2023-02-28T15:11:07;10.00;;;8.70;;
13343;SDS011;6741;48.964;9.406;2023-02-28T15:13:39;9.60;;;8.63;;
13343;SDS011;6741;48.964;9.406;2023-02-28T15:16:12;10.17;;;9.17;;
13343;SDS011;6741;48.964;9.406;2023-02-28T15:18:44;17.23;;;14.43;;
13343;SDS011;6741;48.964;9.406;2023-02-28T15:21:16;12.70;;;11.10;;
13343;SDS011;6741;48.964;9.406;2023-02-28T15:23:48;17.10;;;13.20;;
13343;SDS011;6741;48.964;9.406;2023-02-28T15:26:19;12.57;;;10.70;;
13343;SDS011;6741;48.964;9.406;2023-02-28T15:28:48;15.07;;;11.87;;
13343;SDS011;6741;48.964;9.406;2023-02-28T15:31:20;12.67;;;10.30;;
13343;SDS011;6741;48.964;9.406;2023-02-28T15:33:53;11.93;;;10.20;;
13343;SDS011;6741;48.964;9.406;2023-02-28T15:36:23;17.33;;;12.40;;
13343;SDS011;6741;48.964;9.406;2023-02-28T15:38:52;16.03;;;11.50;;
13343;SDS011;6741;48.964;9.406;2023-02-28T15:41:26;13.73;;;11.30;;
13343;SDS011;6741;48.964;9.406;2023-02-28T15:44:14;24.97;;;16.47;;
13343;SDS011;6741;48.964;9.406;2023-02-28T15:46:44;21.57;;;13.40;;
13343;SDS011;6741;48.964;9.406;2023-02-28T15:49:21;20.50;;;13.63;;
13343;SDS011;6741;48.964;9.406;2023-02-28T15:51:51;12.33;;;10.40;;
13343;SDS011;6741;48.964;9.406;2023-02-28T15:54:25;11.03;;;9.43;;
13343;SDS011;6741;48.964;9.406;2023-02-28T15:56:55;10.70;;;9.60;;
13343;SDS011;6741;48.964;9.406;2023-02-28T15:59:25;11.53;;;9.87;;